sensor_id;sensor_type;location;lat;lon;timestamp;P1;durP1;ratioP1;P2;durP2;ratioP2
45420;SDS011;55462;47.042;8.292;2023-05-07T00:01:30;2.95;;;2.60;;
45420;SDS011;55462;47.042;8.292;2023-05-07T00:03:56;3.45;;;2.78;;
45420;SDS011;55462;47.042;8.292;2023-05-07T00:06:21;3.22;;;2.92;;
45420;SDS011;55462;47.042;8.292;2023-05-07T00:08:47;5.25;;;2.70;;
45420;SDS011;55462;47.042;8.292;2023-05-07T00:11:12;3.92;;;3.17;;
45420;SDS011;55462;47.042;8.292;2023-05-07T00:13:38;3.70;;;2.95;;
45420;SDS011;55462;47.042;8.292;2023-05-07T00:16:03;2.95;;;2.70;;
45420;SDS011;55462;47.042;8.292;2023-05-07T00:18:29;3.15;;;2.95;;
45420;SDS011;55462;47.042;8.292;2023-05-07T00:20:54;3.28;;;3.00;;
45420;SDS011;55462;47.042;8.292;2023-05-07T00:23:20;3.22;;;3.03;;
45420;SDS011;55462;47.042;8.292;2023-05-07T00:25:45;4.93;;;3.40;;
45420;SDS011;55462;47.042;8.292;2023-05-07T00:28:10;3.92;;;3.20;;
45420;SDS011;55462;47.042;8.292;2023-05-07T00:30:35;2.80;;;2.60;;
45420;SDS011;55462;47.042;8.292;2023-05-07T00:33:01;3.55;;;2.83;;
45420;SDS011;55462;47.042;8.292;2023-05-07T00:35:27;3.22;;;2.92;;
45420;SDS011;55462;47.042;8.292;2023-05-07T00:37:53;5.88;;;2.97;;
45420;SDS011;55462;47.042;8.292;2023-05-07T00:40:18;3.17;;;2.97;;
45420;SDS011;55462;47.042;8.292;2023-05-07T00:42:44;3.10;;;2.80;;
45420;SDS011;55462;47.042;8.292;2023-05-07T00:45:12;6.05;;;3.30;;
45420;SDS011;55462;47.042;8.292;2023-05-07T00:47:38;3.38;;;3.08;;
45420;SDS011;55462;47.042;8.292;2023-05-07T00:50:04;2.85;;;2.65;;
45420;SDS011;55462;47.042;8.292;2023-05-07T00:52:30;3.30;;;3.10;;
45420;SDS011;55462;47.042;8.292;2023-05-07T00:54:55;3.55;;;3.05;;
45420;SDS011;55462;47.042;8.292;2023-05-07T00:57:21;3.45;;;3.03;;
45420;SDS011;55462;47.042;8.292;2023-05-07T00:59:47;3.85;;;3.20;;
45420;SDS011;55462;47.042;8.292;2023-05-07T01:02:13;4.47;;;3.90;;
45420;SDS011;55462;47.042;8.292;2023-05-07T01:04:38;4.03;;;3.72;;
45420;SDS011;55462;47.042;8.292;2023-05-07T01:07:04;3.42;;;3.22;;
45420;SDS011;55462;47.042;8.292;2023-05-07T01:09:30;4.45;;;3.42;;
45420;SDS011;55462;47.042;8.292;2023-05-07T01:11:55;4.80;;;3.42;;
45420;SDS011;55462;47.042;8.292;2023-05-07T01:14:22;3.50;;;3.20;;
45420;SDS011;55462;47.042;8.292;2023-05-07T01:16:48;3.40;;;3.17;;
45420;SDS011;55462;47.042;8.292;2023-05-07T01:19:16;3.10;;;2.90;;
45420;SDS011;55462;47.042;8.292;2023-05-07T01:21:47;3.22;;;2.90;;
45420;SDS011;55462;47.042;8.292;2023-05-07T01:24:13;2.88;;;2.63;;
45420;SDS011;55462;47.042;8.292;2023-05-07T01:26:39;4.40;;;2.90;;
45420;SDS011;55462;47.042;8.292;2023-05-07T01:29:04;3.45;;;3.15;;
45420;SDS011;55462;47.042;8.292;2023-05-07T01:31:30;3.30;;;3.05;;
45420;SDS011;55462;47.042;8.292;2023-05-07T01:33:55;3.22;;;2.85;;
45420;SDS011;55462;47.042;8.292;2023-05-07T01:36:22;6.05;;;2.90;;
45420;SDS011;55462;47.042;8.292;2023-05-07T01:38:50;3.00;;;2.70;;
45420;SDS011;55462;47.042;8.292;2023-05-07T01:41:16;3.90;;;2.22;;
45420;SDS011;55462;47.042;8.292;2023-05-07T01:43:42;3.50;;;2.92;;
45420;SDS011;55462;47.042;8.292;2023-05-07T01:46:07;3.13;;;2.83;;
45420;SDS011;55462;47.042;8.292;2023-05-07T01:48:34;2.92;;;2.67;;
45420;SDS011;55462;47.042;8.292;2023-05-07T01:51:00;3.00;;;2.80;;
45420;SDS011;55462;47.042;8.292;2023-05-07T01:53:27;3.20;;;2.90;;
45420;SDS011;55462;47.042;8.292;2023-05-07T01:55:53;5.15;;;2.55;;
45420;SDS011;55462;47.042;8.292;2023-05-07T01:58:18;3.85;;;2.80;;
45420;SDS011;55462;47.042;8.292;2023-05-07T02:00:43;3.03;;;2.83;;
45420;SDS011;55462;47.042;8.292;2023-05-07T02:03:09;3.53;;;3.17;;
45420;SDS011;55462;47.042;8.292;2023-05-07T02:05:34;3.15;;;2.90;;
45420;SDS011;55462;47.042;8.292;2023-05-07T02:07:59;2.70;;;2.60;;
45420;SDS011;55462;47.042;8.292;2023-05-07T02:10:25;2.85;;;2.65;;
45420;SDS011;55462;47.042;8.292;2023-05-07T02:12:50;2.95;;;2.75;;
45420;SDS011;55462;47.042;8.292;2023-05-07T02:15:15;2.75;;;2.55;;
45420;SDS011;55462;47.042;8.292;2023-05-07T02:18:00;5.50;;;2.80;;
45420;SDS011;55462;47.042;8.292;2023-05-07T02:20:26;3.10;;;2.80;;
45420;SDS011;55462;47.042;8.292;2023-05-07T02:22:52;2.85;;;2.65;;
45420;SDS011;55462;47.042;8.292;2023-05-07T02:25:17;3.95;;;2.92;;
45420;SDS011;55462;47.042;8.292;2023-05-07T02:27:43;4.65;;;2.92;;
45420;SDS011;55462;47.042;8.292;2023-05-07T02:30:08;3.50;;;3.22;;
45420;SDS011;55462;47.042;8.292;2023-05-07T02:32:33;4.18;;;2.83;;
45420;SDS011;55462;47.042;8.292;2023-05-07T02:34:59;3.13;;;2.88;;
45420;SDS011;55462;47.042;8.292;2023-05-07T02:37:24;4.18;;;3.45;;
45420;SDS011;55462;47.042;8.292;2023-05-07T02:39:49;3.17;;;2.80;;
45420;SDS011;55462;47.042;8.292;2023-05-07T02:42:15;3.60;;;2.72;;
45420;SDS011;55462;47.042;8.292;2023-05-07T02:44:40;3.92;;;2.40;;
45420;SDS011;55462;47.042;8.292;2023-05-07T02:47:05;4.63;;;2.95;;
45420;SDS011;55462;47.042;8.292;2023-05-07T02:49:33;3.63;;;3.33;;
45420;SDS011;55462;47.042;8.292;2023-05-07T02:51:58;5.40;;;3.03;;
45420;SDS011;55462;47.042;8.292;2023-05-07T02:54:24;4.80;;;3.10;;
45420;SDS011;55462;47.042;8.292;2023-05-07T02:56:49;3.10;;;2.90;;
45420;SDS011;55462;47.042;8.292;2023-05-07T02:59:15;10.23;;;3.13;;
45420;SDS011;55462;47.042;8.292;2023-05-07T03:01:40;4.07;;;3.20;;
45420;SDS011;55462;47.042;8.292;2023-05-07T03:04:06;3.53;;;3.17;;
45420;SDS011;55462;47.042;8.292;2023-05-07T03:06:31;3.42;;;3.13;;
45420;SDS011;55462;47.042;8.292;2023-05-07T03:08:57;3.70;;;3.30;;
45420;SDS011;55462;47.042;8.292;2023-05-07T03:11:22;3.20;;;2.90;;
45420;SDS011;55462;47.042;8.292;2023-05-07T03:13:47;4.85;;;2.90;;
45420;SDS011;55462;47.042;8.292;2023-05-07T03:16:14;3.85;;;3.05;;
45420;SDS011;55462;47.042;8.292;2023-05-07T03:18:40;3.10;;;2.90;;
45420;SDS011;55462;47.042;8.292;2023-05-07T03:21:05;3.72;;;2.88;;
45420;SDS011;55462;47.042;8.292;2023-05-07T03:23:31;3.35;;;3.05;;
45420;SDS011;55462;47.042;8.292;2023-05-07T03:25:56;3.67;;;3.05;;
45420;SDS011;55462;47.042;8.292;2023-05-07T03:28:21;4.60;;;3.03;;
45420;SDS011;55462;47.042;8.292;2023-05-07T03:30:47;3.97;;;3.53;;
45420;SDS011;55462;47.042;8.292;2023-05-07T03:33:12;4.95;;;3.58;;
45420;SDS011;55462;47.042;8.292;2023-05-07T03:35:37;5.88;;;3.65;;
45420;SDS011;55462;47.042;8.292;2023-05-07T03:38:02;3.38;;;3.08;;
45420;SDS011;55462;47.042;8.292;2023-05-07T03:40:28;6.05;;;3.75;;
45420;SDS011;55462;47.042;8.292;2023-05-07T03:42:53;3.50;;;3.20;;
45420;SDS011;55462;47.042;8.292;2023-05-07T03:45:18;3.50;;;3.28;;
45420;SDS011;55462;47.042;8.292;2023-05-07T03:47:44;3.60;;;3.30;;
45420;SDS011;55462;47.042;8.292;2023-05-07T03:50:09;4.47;;;3.38;;
45420;SDS011;55462;47.042;8.292;2023-05-07T03:52:35;3.67;;;3.38;;
45420;SDS011;55462;47.042;8.292;2023-05-07T03:55:00;3.47;;;2.92;;
45420;SDS011;55462;47.042;8.292;2023-05-07T03:57:26;4.82;;;3.00;;
45420;SDS011;55462;47.042;8.292;2023-05-07T03:59:51;3.25;;;2.92;;
45420;SDS011;55462;47.042;8.292;2023-05-07T04:02:16;3.72;;;2.90;;
45420;SDS011;55462;47.042;8.292;2023-05-07T04:04:42;3.75;;;3.30;;
45420;SDS011;55462;47.042;8.292;2023-05-07T04:07:07;3.00;;;2.80;;
45420;SDS011;55462;47.042;8.292;2023-05-07T04:09:32;6.82;;;3.00;;
45420;SDS011;55462;47.042;8.292;2023-05-07T04:11:58;4.00;;;2.90;;
45420;SDS011;55462;47.042;8.292;2023-05-07T04:14:23;6.45;;;3.03;;
45420;SDS011;55462;47.042;8.292;2023-05-07T04:16:48;3.25;;;2.95;;
45420;SDS011;55462;47.042;8.292;2023-05-07T04:19:14;3.30;;;3.10;;
45420;SDS011;55462;47.042;8.292;2023-05-07T04:21:39;3.40;;;3.20;;
45420;SDS011;55462;47.042;8.292;2023-05-07T04:24:05;5.75;;;3.38;;
45420;SDS011;55462;47.042;8.292;2023-05-07T04:26:30;3.78;;;3.40;;
45420;SDS011;55462;47.042;8.292;2023-05-07T04:28:56;3.22;;;3.00;;
45420;SDS011;55462;47.042;8.292;2023-05-07T04:31:24;5.00;;;3.17;;
45420;SDS011;55462;47.042;8.292;2023-05-07T04:33:49;3.20;;;2.80;;
45420;SDS011;55462;47.042;8.292;2023-05-07T04:36:15;3.72;;;3.42;;
45420;SDS011;55462;47.042;8.292;2023-05-07T04:38:41;4.53;;;3.20;;
45420;SDS011;55462;47.042;8.292;2023-05-07T04:41:06;3.63;;;3.33;;
45420;SDS011;55462;47.042;8.292;2023-05-07T04:43:32;4.22;;;3.10;;
45420;SDS011;55462;47.042;8.292;2023-05-07T04:45:57;4.03;;;3.55;;
45420;SDS011;55462;47.042;8.292;2023-05-07T04:48:22;3.30;;;2.88;;
45420;SDS011;55462;47.042;8.292;2023-05-07T04:50:48;3.20;;;3.00;;
45420;SDS011;55462;47.042;8.292;2023-05-07T04:53:17;3.33;;;3.00;;
45420;SDS011;55462;47.042;8.292;2023-05-07T04:55:43;3.10;;;2.90;;
45420;SDS011;55462;47.042;8.292;2023-05-07T04:58:08;4.53;;;3.50;;
45420;SDS011;55462;47.042;8.292;2023-05-07T05:00:34;4.35;;;3.20;;
45420;SDS011;55462;47.042;8.292;2023-05-07T05:02:59;3.70;;;3.40;;
45420;SDS011;55462;47.042;8.292;2023-05-07T05:05:24;3.80;;;3.20;;
45420;SDS011;55462;47.042;8.292;2023-05-07T05:07:50;3.97;;;3.47;;
45420;SDS011;55462;47.042;8.292;2023-05-07T05:10:16;6.88;;;3.00;;
45420;SDS011;55462;47.042;8.292;2023-05-07T05:12:42;2.90;;;2.70;;
45420;SDS011;55462;47.042;8.292;2023-05-07T05:15:07;3.28;;;2.90;;
45420;SDS011;55462;47.042;8.292;2023-05-07T05:17:33;3.22;;;2.90;;
45420;SDS011;55462;47.042;8.292;2023-05-07T05:19:59;3.22;;;2.80;;
45420;SDS011;55462;47.042;8.292;2023-05-07T05:22:25;3.65;;;3.08;;
45420;SDS011;55462;47.042;8.292;2023-05-07T05:24:50;3.15;;;2.70;;
45420;SDS011;55462;47.042;8.292;2023-05-07T05:27:16;6.38;;;3.33;;
45420;SDS011;55462;47.042;8.292;2023-05-07T05:29:41;3.70;;;3.38;;
45420;SDS011;55462;47.042;8.292;2023-05-07T05:32:06;2.95;;;2.75;;
45420;SDS011;55462;47.042;8.292;2023-05-07T05:34:32;3.17;;;2.80;;
45420;SDS011;55462;47.042;8.292;2023-05-07T05:36:58;3.25;;;2.95;;
45420;SDS011;55462;47.042;8.292;2023-05-07T05:39:24;4.45;;;3.03;;
45420;SDS011;55462;47.042;8.292;2023-05-07T05:41:49;6.28;;;3.20;;
45420;SDS011;55462;47.042;8.292;2023-05-07T05:44:14;4.20;;;3.63;;
45420;SDS011;55462;47.042;8.292;2023-05-07T05:46:40;4.10;;;3.33;;
45420;SDS011;55462;47.042;8.292;2023-05-07T05:49:05;6.03;;;3.55;;
45420;SDS011;55462;47.042;8.292;2023-05-07T05:51:30;7.38;;;3.13;;
45420;SDS011;55462;47.042;8.292;2023-05-07T05:53:56;3.45;;;3.13;;
45420;SDS011;55462;47.042;8.292;2023-05-07T05:56:21;3.10;;;2.90;;
45420;SDS011;55462;47.042;8.292;2023-05-07T05:58:46;3.33;;;3.13;;
45420;SDS011;55462;47.042;8.292;2023-05-07T06:01:12;5.97;;;3.20;;
45420;SDS011;55462;47.042;8.292;2023-05-07T06:03:37;4.57;;;3.10;;
45420;SDS011;55462;47.042;8.292;2023-05-07T06:06:02;3.83;;;3.20;;
45420;SDS011;55462;47.042;8.292;2023-05-07T06:08:31;5.30;;;3.65;;
45420;SDS011;55462;47.042;8.292;2023-05-07T06:10:56;3.90;;;3.70;;
45420;SDS011;55462;47.042;8.292;2023-05-07T06:13:22;5.93;;;3.42;;
45420;SDS011;55462;47.042;8.292;2023-05-07T06:15:47;3.50;;;3.30;;
45420;SDS011;55462;47.042;8.292;2023-05-07T06:18:13;3.33;;;3.03;;
45420;SDS011;55462;47.042;8.292;2023-05-07T06:20:39;3.25;;;3.05;;
45420;SDS011;55462;47.042;8.292;2023-05-07T06:23:04;7.70;;;3.78;;
45420;SDS011;55462;47.042;8.292;2023-05-07T06:25:30;6.10;;;3.28;;
45420;SDS011;55462;47.042;8.292;2023-05-07T06:27:55;3.85;;;3.45;;
45420;SDS011;55462;47.042;8.292;2023-05-07T06:30:20;4.55;;;3.50;;
45420;SDS011;55462;47.042;8.292;2023-05-07T06:32:46;3.67;;;3.38;;
45420;SDS011;55462;47.042;8.292;2023-05-07T06:35:11;7.45;;;3.75;;
45420;SDS011;55462;47.042;8.292;2023-05-07T06:37:36;4.40;;;3.63;;
45420;SDS011;55462;47.042;8.292;2023-05-07T06:40:04;4.38;;;3.95;;
45420;SDS011;55462;47.042;8.292;2023-05-07T06:42:30;3.95;;;3.65;;
45420;SDS011;55462;47.042;8.292;2023-05-07T06:44:55;5.93;;;3.70;;
45420;SDS011;55462;47.042;8.292;2023-05-07T06:47:21;7.22;;;4.43;;
45420;SDS011;55462;47.042;8.292;2023-05-07T06:49:46;9.07;;;4.30;;
45420;SDS011;55462;47.042;8.292;2023-05-07T06:52:11;4.57;;;4.28;;
45420;SDS011;55462;47.042;8.292;2023-05-07T06:54:37;7.30;;;3.88;;
45420;SDS011;55462;47.042;8.292;2023-05-07T06:57:02;4.93;;;4.35;;
45420;SDS011;55462;47.042;8.292;2023-05-07T06:59:27;9.50;;;4.13;;
45420;SDS011;55462;47.042;8.292;2023-05-07T07:01:53;6.53;;;4.00;;
45420;SDS011;55462;47.042;8.292;2023-05-07T07:04:18;5.35;;;3.90;;
45420;SDS011;55462;47.042;8.292;2023-05-07T07:06:43;4.45;;;3.75;;
45420;SDS011;55462;47.042;8.292;2023-05-07T07:09:09;3.55;;;3.33;;
45420;SDS011;55462;47.042;8.292;2023-05-07T07:11:34;3.65;;;3.45;;
45420;SDS011;55462;47.042;8.292;2023-05-07T07:13:59;4.28;;;3.90;;
45420;SDS011;55462;47.042;8.292;2023-05-07T07:16:25;3.78;;;3.47;;
45420;SDS011;55462;47.042;8.292;2023-05-07T07:18:50;4.15;;;3.65;;
45420;SDS011;55462;47.042;8.292;2023-05-07T07:21:16;4.35;;;3.47;;
45420;SDS011;55462;47.042;8.292;2023-05-07T07:23:41;5.88;;;3.90;;
45420;SDS011;55462;47.042;8.292;2023-05-07T07:26:06;4.03;;;3.60;;
45420;SDS011;55462;47.042;8.292;2023-05-07T07:28:32;4.05;;;3.63;;
45420;SDS011;55462;47.042;8.292;2023-05-07T07:30:57;3.90;;;3.50;;
45420;SDS011;55462;47.042;8.292;2023-05-07T07:33:22;7.15;;;3.72;;
45420;SDS011;55462;47.042;8.292;2023-05-07T07:35:48;6.15;;;3.78;;
45420;SDS011;55462;47.042;8.292;2023-05-07T07:38:13;5.07;;;3.42;;
45420;SDS011;55462;47.042;8.292;2023-05-07T07:40:38;3.38;;;3.08;;
45420;SDS011;55462;47.042;8.292;2023-05-07T07:43:04;3.78;;;3.47;;
45420;SDS011;55462;47.042;8.292;2023-05-07T07:45:29;5.80;;;3.30;;
45420;SDS011;55462;47.042;8.292;2023-05-07T07:47:55;3.25;;;3.05;;
45420;SDS011;55462;47.042;8.292;2023-05-07T07:50:20;5.10;;;3.30;;
45420;SDS011;55462;47.042;8.292;2023-05-07T07:52:45;3.72;;;3.30;;
45420;SDS011;55462;47.042;8.292;2023-05-07T07:55:11;3.38;;;3.15;;
45420;SDS011;55462;47.042;8.292;2023-05-07T07:57:37;3.55;;;3.25;;
45420;SDS011;55462;47.042;8.292;2023-05-07T08:00:02;3.72;;;3.40;;
45420;SDS011;55462;47.042;8.292;2023-05-07T08:02:28;4.15;;;3.15;;
45420;SDS011;55462;47.042;8.292;2023-05-07T08:04:53;5.07;;;3.05;;
45420;SDS011;55462;47.042;8.292;2023-05-07T08:07:19;4.60;;;2.92;;
45420;SDS011;55462;47.042;8.292;2023-05-07T08:09:47;3.42;;;3.20;;
45420;SDS011;55462;47.042;8.292;2023-05-07T08:12:13;3.97;;;3.35;;
45420;SDS011;55462;47.042;8.292;2023-05-07T08:14:38;3.75;;;3.45;;
45420;SDS011;55462;47.042;8.292;2023-05-07T08:17:03;3.78;;;3.40;;
45420;SDS011;55462;47.042;8.292;2023-05-07T08:19:29;4.13;;;3.28;;
45420;SDS011;55462;47.042;8.292;2023-05-07T08:21:54;4.20;;;3.03;;
45420;SDS011;55462;47.042;8.292;2023-05-07T08:24:20;3.45;;;3.15;;
45420;SDS011;55462;47.042;8.292;2023-05-07T08:26:46;3.50;;;3.20;;
45420;SDS011;55462;47.042;8.292;2023-05-07T08:29:11;3.80;;;3.20;;
45420;SDS011;55462;47.042;8.292;2023-05-07T08:31:36;4.10;;;3.30;;
45420;SDS011;55462;47.042;8.292;2023-05-07T08:34:03;3.30;;;3.00;;
45420;SDS011;55462;47.042;8.292;2023-05-07T08:36:29;3.78;;;2.92;;
45420;SDS011;55462;47.042;8.292;2023-05-07T08:38:55;3.78;;;2.90;;
45420;SDS011;55462;47.042;8.292;2023-05-07T08:41:20;5.32;;;3.40;;
45420;SDS011;55462;47.042;8.292;2023-05-07T08:43:49;6.25;;;3.63;;
45420;SDS011;55462;47.042;8.292;2023-05-07T08:46:19;3.90;;;3.50;;
45420;SDS011;55462;47.042;8.292;2023-05-07T08:48:47;4.53;;;3.50;;
45420;SDS011;55462;47.042;8.292;2023-05-07T08:51:14;4.53;;;3.35;;
45420;SDS011;55462;47.042;8.292;2023-05-07T08:53:41;4.68;;;3.33;;
45420;SDS011;55462;47.042;8.292;2023-05-07T08:56:07;3.50;;;3.20;;
45420;SDS011;55462;47.042;8.292;2023-05-07T08:58:33;5.70;;;3.00;;
45420;SDS011;55462;47.042;8.292;2023-05-07T09:00:58;4.03;;;3.65;;
45420;SDS011;55462;47.042;8.292;2023-05-07T09:03:27;3.70;;;3.33;;
45420;SDS011;55462;47.042;8.292;2023-05-07T09:05:52;3.65;;;3.35;;
45420;SDS011;55462;47.042;8.292;2023-05-07T09:08:18;3.58;;;3.28;;
45420;SDS011;55462;47.042;8.292;2023-05-07T09:10:43;4.53;;;3.45;;
45420;SDS011;55462;47.042;8.292;2023-05-07T09:13:09;3.92;;;3.58;;
45420;SDS011;55462;47.042;8.292;2023-05-07T09:15:39;3.78;;;3.50;;
45420;SDS011;55462;47.042;8.292;2023-05-07T09:18:04;3.97;;;3.58;;
45420;SDS011;55462;47.042;8.292;2023-05-07T09:20:30;3.95;;;3.65;;
45420;SDS011;55462;47.042;8.292;2023-05-07T09:22:56;4.30;;;4.00;;
45420;SDS011;55462;47.042;8.292;2023-05-07T09:25:28;5.30;;;3.30;;
45420;SDS011;55462;47.042;8.292;2023-05-07T09:27:54;4.72;;;3.25;;
45420;SDS011;55462;47.042;8.292;2023-05-07T09:30:19;3.03;;;2.83;;
45420;SDS011;55462;47.042;8.292;2023-05-07T09:32:45;2.97;;;2.78;;
45420;SDS011;55462;47.042;8.292;2023-05-07T09:35:16;3.53;;;3.22;;
45420;SDS011;55462;47.042;8.292;2023-05-07T09:37:43;4.80;;;3.10;;
45420;SDS011;55462;47.042;8.292;2023-05-07T09:40:08;3.67;;;3.10;;
45420;SDS011;55462;47.042;8.292;2023-05-07T09:42:45;3.30;;;3.00;;
45420;SDS011;55462;47.042;8.292;2023-05-07T09:45:12;6.60;;;3.45;;
45420;SDS011;55462;47.042;8.292;2023-05-07T09:47:37;3.35;;;3.10;;
45420;SDS011;55462;47.042;8.292;2023-05-07T09:50:04;4.00;;;3.45;;
45420;SDS011;55462;47.042;8.292;2023-05-07T09:52:30;4.50;;;3.17;;
45420;SDS011;55462;47.042;8.292;2023-05-07T09:54:58;3.30;;;3.10;;
45420;SDS011;55462;47.042;8.292;2023-05-07T09:57:24;3.40;;;3.10;;
45420;SDS011;55462;47.042;8.292;2023-05-07T09:59:50;3.97;;;2.88;;
45420;SDS011;55462;47.042;8.292;2023-05-07T10:02:17;3.78;;;3.10;;
45420;SDS011;55462;47.042;8.292;2023-05-07T10:04:42;3.15;;;2.95;;
45420;SDS011;55462;47.042;8.292;2023-05-07T10:07:08;4.07;;;3.08;;
45420;SDS011;55462;47.042;8.292;2023-05-07T10:09:33;3.60;;;3.10;;
45420;SDS011;55462;47.042;8.292;2023-05-07T10:12:03;3.50;;;3.20;;
45420;SDS011;55462;47.042;8.292;2023-05-07T10:14:29;4.28;;;2.47;;
45420;SDS011;55462;47.042;8.292;2023-05-07T10:16:55;3.17;;;2.88;;
45420;SDS011;55462;47.042;8.292;2023-05-07T10:19:21;3.80;;;3.05;;
45420;SDS011;55462;47.042;8.292;2023-05-07T10:21:59;3.45;;;3.08;;
45420;SDS011;55462;47.042;8.292;2023-05-07T10:24:29;4.25;;;3.25;;
45420;SDS011;55462;47.042;8.292;2023-05-07T10:26:57;3.60;;;3.13;;
45420;SDS011;55462;47.042;8.292;2023-05-07T10:29:35;5.85;;;3.70;;
45420;SDS011;55462;47.042;8.292;2023-05-07T10:34:59;2.88;;;2.63;;
45420;SDS011;55462;47.042;8.292;2023-05-07T10:37:27;3.53;;;2.80;;
45420;SDS011;55462;47.042;8.292;2023-05-07T10:39:53;3.65;;;3.35;;
45420;SDS011;55462;47.042;8.292;2023-05-07T10:42:18;6.55;;;3.83;;
45420;SDS011;55462;47.042;8.292;2023-05-07T10:44:43;4.05;;;3.72;;
45420;SDS011;55462;47.042;8.292;2023-05-07T10:47:12;4.05;;;3.53;;
45420;SDS011;55462;47.042;8.292;2023-05-07T10:54:39;5.88;;;2.67;;
45420;SDS011;55462;47.042;8.292;2023-05-07T10:59:59;3.83;;;3.47;;
45420;SDS011;55462;47.042;8.292;2023-05-07T11:02:41;3.13;;;2.72;;
45420;SDS011;55462;47.042;8.292;2023-05-07T11:05:24;4.50;;;3.28;;
45420;SDS011;55462;47.042;8.292;2023-05-07T11:07:54;3.88;;;3.03;;
45420;SDS011;55462;47.042;8.292;2023-05-07T11:10:20;5.43;;;3.50;;
45420;SDS011;55462;47.042;8.292;2023-05-07T11:12:46;4.25;;;3.10;;
45420;SDS011;55462;47.042;8.292;2023-05-07T11:15:15;3.10;;;2.80;;
45420;SDS011;55462;47.042;8.292;2023-05-07T11:17:59;3.22;;;3.00;;
45420;SDS011;55462;47.042;8.292;2023-05-07T11:23:16;3.05;;;2.70;;
45420;SDS011;55462;47.042;8.292;2023-05-07T11:28:38;6.03;;;3.00;;
45420;SDS011;55462;47.042;8.292;2023-05-07T11:31:05;3.00;;;2.78;;
45420;SDS011;55462;47.042;8.292;2023-05-07T11:33:30;3.35;;;3.15;;
45420;SDS011;55462;47.042;8.292;2023-05-07T11:35:56;5.97;;;3.50;;
45420;SDS011;55462;47.042;8.292;2023-05-07T11:38:22;4.28;;;3.20;;
45420;SDS011;55462;47.042;8.292;2023-05-07T11:40:49;3.55;;;3.20;;
45420;SDS011;55462;47.042;8.292;2023-05-07T11:43:15;3.17;;;2.97;;
45420;SDS011;55462;47.042;8.292;2023-05-07T11:45:40;4.35;;;3.50;;
45420;SDS011;55462;47.042;8.292;2023-05-07T11:48:06;3.40;;;3.10;;
45420;SDS011;55462;47.042;8.292;2023-05-07T11:50:31;3.72;;;3.47;;
45420;SDS011;55462;47.042;8.292;2023-05-07T11:52:56;3.83;;;3.40;;
45420;SDS011;55462;47.042;8.292;2023-05-07T11:55:23;4.95;;;3.47;;
45420;SDS011;55462;47.042;8.292;2023-05-07T11:57:49;5.60;;;3.47;;
45420;SDS011;55462;47.042;8.292;2023-05-07T12:00:15;3.65;;;2.92;;
45420;SDS011;55462;47.042;8.292;2023-05-07T12:02:42;7.80;;;3.50;;
45420;SDS011;55462;47.042;8.292;2023-05-07T12:05:07;3.22;;;3.03;;
45420;SDS011;55462;47.042;8.292;2023-05-07T12:07:33;3.30;;;3.00;;
45420;SDS011;55462;47.042;8.292;2023-05-07T12:09:59;3.92;;;3.50;;
45420;SDS011;55462;47.042;8.292;2023-05-07T12:12:24;3.75;;;3.45;;
45420;SDS011;55462;47.042;8.292;2023-05-07T12:14:49;5.80;;;3.50;;
45420;SDS011;55462;47.042;8.292;2023-05-07T12:17:15;6.68;;;3.85;;
45420;SDS011;55462;47.042;8.292;2023-05-07T12:19:41;5.10;;;3.40;;
45420;SDS011;55462;47.042;8.292;2023-05-07T12:22:08;4.15;;;3.70;;
45420;SDS011;55462;47.042;8.292;2023-05-07T12:24:43;5.03;;;3.53;;
45420;SDS011;55462;47.042;8.292;2023-05-07T12:27:09;4.35;;;3.95;;
45420;SDS011;55462;47.042;8.292;2023-05-07T12:29:35;4.43;;;4.00;;
45420;SDS011;55462;47.042;8.292;2023-05-07T12:32:00;3.88;;;3.58;;
45420;SDS011;55462;47.042;8.292;2023-05-07T12:34:25;3.70;;;3.40;;
45420;SDS011;55462;47.042;8.292;2023-05-07T12:36:51;4.40;;;4.00;;
45420;SDS011;55462;47.042;8.292;2023-05-07T12:39:16;5.55;;;3.53;;
45420;SDS011;55462;47.042;8.292;2023-05-07T12:41:54;3.80;;;3.50;;
45420;SDS011;55462;47.042;8.292;2023-05-07T12:44:24;4.53;;;3.38;;
45420;SDS011;55462;47.042;8.292;2023-05-07T12:46:50;5.25;;;3.78;;
45420;SDS011;55462;47.042;8.292;2023-05-07T12:49:16;3.80;;;3.40;;
45420;SDS011;55462;47.042;8.292;2023-05-07T12:51:43;4.30;;;3.58;;
45420;SDS011;55462;47.042;8.292;2023-05-07T12:54:08;4.15;;;3.75;;
45420;SDS011;55462;47.042;8.292;2023-05-07T12:56:36;4.32;;;4.00;;
45420;SDS011;55462;47.042;8.292;2023-05-07T12:59:02;4.00;;;3.60;;
45420;SDS011;55462;47.042;8.292;2023-05-07T13:01:30;4.85;;;3.60;;
45420;SDS011;55462;47.042;8.292;2023-05-07T13:03:59;4.45;;;4.07;;
45420;SDS011;55462;47.042;8.292;2023-05-07T13:06:25;6.72;;;4.20;;
45420;SDS011;55462;47.042;8.292;2023-05-07T13:08:51;7.43;;;4.00;;
45420;SDS011;55462;47.042;8.292;2023-05-07T13:11:16;5.13;;;4.00;;
45420;SDS011;55462;47.042;8.292;2023-05-07T13:13:41;4.10;;;3.70;;
45420;SDS011;55462;47.042;8.292;2023-05-07T13:16:08;4.43;;;3.90;;
45420;SDS011;55462;47.042;8.292;2023-05-07T13:18:34;4.95;;;4.22;;
45420;SDS011;55462;47.042;8.292;2023-05-07T13:21:00;4.63;;;4.28;;
45420;SDS011;55462;47.042;8.292;2023-05-07T13:23:25;4.40;;;3.90;;
45420;SDS011;55462;47.042;8.292;2023-05-07T13:25:51;7.75;;;3.90;;
45420;SDS011;55462;47.042;8.292;2023-05-07T13:28:18;6.60;;;3.72;;
45420;SDS011;55462;47.042;8.292;2023-05-07T13:30:45;4.85;;;4.07;;
45420;SDS011;55462;47.042;8.292;2023-05-07T13:33:10;7.20;;;4.20;;
45420;SDS011;55462;47.042;8.292;2023-05-07T13:35:35;4.70;;;4.18;;
45420;SDS011;55462;47.042;8.292;2023-05-07T13:38:01;4.13;;;3.83;;
45420;SDS011;55462;47.042;8.292;2023-05-07T13:40:26;5.82;;;3.42;;
45420;SDS011;55462;47.042;8.292;2023-05-07T13:42:51;3.40;;;3.20;;
45420;SDS011;55462;47.042;8.292;2023-05-07T13:45:18;3.88;;;3.50;;
45420;SDS011;55462;47.042;8.292;2023-05-07T13:47:44;3.78;;;3.35;;
45420;SDS011;55462;47.042;8.292;2023-05-07T13:50:10;3.38;;;3.17;;
45420;SDS011;55462;47.042;8.292;2023-05-07T13:52:40;3.70;;;3.40;;
45420;SDS011;55462;47.042;8.292;2023-05-07T13:55:06;4.05;;;3.63;;
45420;SDS011;55462;47.042;8.292;2023-05-07T13:57:32;4.00;;;3.70;;
45420;SDS011;55462;47.042;8.292;2023-05-07T13:59:57;4.05;;;3.63;;
45420;SDS011;55462;47.042;8.292;2023-05-07T14:02:22;4.03;;;3.63;;
45420;SDS011;55462;47.042;8.292;2023-05-07T14:04:48;5.15;;;3.75;;
45420;SDS011;55462;47.042;8.292;2023-05-07T14:07:13;5.40;;;3.90;;
45420;SDS011;55462;47.042;8.292;2023-05-07T14:09:38;6.05;;;3.90;;
45420;SDS011;55462;47.042;8.292;2023-05-07T14:12:04;5.97;;;3.90;;
45420;SDS011;55462;47.042;8.292;2023-05-07T14:14:30;3.97;;;3.63;;
45420;SDS011;55462;47.042;8.292;2023-05-07T14:16:55;4.47;;;3.90;;
45420;SDS011;55462;47.042;8.292;2023-05-07T14:19:20;3.85;;;3.55;;
45420;SDS011;55462;47.042;8.292;2023-05-07T14:21:47;4.90;;;3.30;;
45420;SDS011;55462;47.042;8.292;2023-05-07T14:24:13;3.20;;;2.88;;
45420;SDS011;55462;47.042;8.292;2023-05-07T14:26:38;3.20;;;3.03;;
45420;SDS011;55462;47.042;8.292;2023-05-07T14:29:03;3.72;;;3.22;;
45420;SDS011;55462;47.042;8.292;2023-05-07T14:31:29;5.15;;;3.38;;
45420;SDS011;55462;47.042;8.292;2023-05-07T14:33:54;3.25;;;3.03;;
45420;SDS011;55462;47.042;8.292;2023-05-07T14:36:19;3.88;;;2.88;;
45420;SDS011;55462;47.042;8.292;2023-05-07T14:38:46;2.97;;;2.78;;
45420;SDS011;55462;47.042;8.292;2023-05-07T14:41:12;2.60;;;2.40;;
45420;SDS011;55462;47.042;8.292;2023-05-07T14:43:37;4.20;;;2.35;;
45420;SDS011;55462;47.042;8.292;2023-05-07T14:46:03;3.58;;;2.60;;
45420;SDS011;55462;47.042;8.292;2023-05-07T14:48:28;2.38;;;2.28;;
45420;SDS011;55462;47.042;8.292;2023-05-07T14:50:53;2.35;;;2.15;;
45420;SDS011;55462;47.042;8.292;2023-05-07T14:53:19;2.70;;;2.50;;
45420;SDS011;55462;47.042;8.292;2023-05-07T14:55:44;2.63;;;2.42;;
45420;SDS011;55462;47.042;8.292;2023-05-07T14:58:10;2.40;;;2.30;;